sensor_id;sensor_type;location;lat;lon;timestamp;pressure;altitude;pressure_sealevel;temperature;humidity
65659;BME280;60181;53.258;6.932;2022-07-24T00:01:03;102102.65;;;22.01;59.88
65659;BME280;60181;53.258;6.932;2022-07-24T00:05:31;102101.64;;;22.01;59.87
65659;BME280;60181;53.258;6.932;2022-07-24T00:09:59;102100.98;;;22.00;59.87
65659;BME280;60181;53.258;6.932;2022-07-24T00:14:27;102100.46;;;22.00;59.86
65659;BME280;60181;53.258;6.932;2022-07-24T00:18:55;102100.64;;;21.99;59.84
65659;BME280;60181;53.258;6.932;2022-07-24T00:23:23;102099.80;;;21.98;59.84
65659;BME280;60181;53.258;6.932;2022-07-24T00:27:51;102098.30;;;21.98;59.82
65659;BME280;60181;53.258;6.932;2022-07-24T00:32:19;102097.89;;;21.98;59.83
65659;BME280;60181;53.258;6.932;2022-07-24T00:36:47;102096.55;;;21.97;59.80
65659;BME280;60181;53.258;6.932;2022-07-24T00:41:15;102093.72;;;21.97;59.81
65659;BME280;60181;53.258;6.932;2022-07-24T00:45:43;102092.86;;;21.96;59.80
65659;BME280;60181;53.258;6.932;2022-07-24T00:50:11;102090.88;;;21.96;59.81
65659;BME280;60181;53.258;6.932;2022-07-24T00:54:39;102088.36;;;21.95;59.80
65659;BME280;60181;53.258;6.932;2022-07-24T00:59:07;102086.30;;;21.94;59.78
65659;BME280;60181;53.258;6.932;2022-07-24T01:03:35;102084.61;;;21.94;59.79
65659;BME280;60181;53.258;6.932;2022-07-24T01:08:03;102082.29;;;21.93;59.79
65659;BME280;60181;53.258;6.932;2022-07-24T01:12:31;102078.77;;;21.93;59.80
65659;BME280;60181;53.258;6.932;2022-07-24T01:16:59;102074.61;;;21.92;59.77
65659;BME280;60181;53.258;6.932;2022-07-24T01:21:27;102071.70;;;21.92;59.79
65659;BME280;60181;53.258;6.932;2022-07-24T01:25:55;102070.34;;;21.92;59.79
65659;BME280;60181;53.258;6.932;2022-07-24T01:30:23;102068.59;;;21.91;59.77
65659;BME280;60181;53.258;6.932;2022-07-24T01:34:51;102066.27;;;21.90;59.77
65659;BME280;60181;53.258;6.932;2022-07-24T01:39:19;102063.75;;;21.90;59.75
65659;BME280;60181;53.258;6.932;2022-07-24T01:43:47;102059.68;;;21.89;59.78
65659;BME280;60181;53.258;6.932;2022-07-24T01:48:15;102057.15;;;21.88;59.75
65659;BME280;60181;53.258;6.932;2022-07-24T01:52:43;102053.83;;;21.88;59.73
65659;BME280;60181;53.258;6.932;2022-07-24T01:57:11;102050.31;;;21.87;59.73
65659;BME280;60181;53.258;6.932;2022-07-24T02:01:39;102047.58;;;21.87;59.73
65659;BME280;60181;53.258;6.932;2022-07-24T02:06:07;102046.06;;;21.86;59.71
65659;BME280;60181;53.258;6.932;2022-07-24T02:10:35;102043.25;;;21.86;59.72
65659;BME280;60181;53.258;6.932;2022-07-24T02:15:03;102038.98;;;21.85;59.72
65659;BME280;60181;53.258;6.932;2022-07-24T02:19:31;102035.41;;;21.85;59.71
65659;BME280;60181;53.258;6.932;2022-07-24T02:23:59;102031.81;;;21.84;59.69
65659;BME280;60181;53.258;6.932;2022-07-24T02:28:27;102030.98;;;21.83;59.71
65659;BME280;60181;53.258;6.932;2022-07-24T02:32:55;102030.14;;;21.83;59.71
65659;BME280;60181;53.258;6.932;2022-07-24T02:37:23;102029.55;;;21.82;59.70
65659;BME280;60181;53.258;6.932;2022-07-24T02:41:51;102029.39;;;21.81;59.69
65659;BME280;60181;53.258;6.932;2022-07-24T02:46:19;102028.41;;;21.81;59.68
65659;BME280;60181;53.258;6.932;2022-07-24T02:50:47;102026.39;;;21.80;59.68
65659;BME280;60181;53.258;6.932;2022-07-24T02:55:15;102023.74;;;21.80;59.67
65659;BME280;60181;53.258;6.932;2022-07-24T02:59:43;102020.71;;;21.79;59.67
65659;BME280;60181;53.258;6.932;2022-07-24T03:04:11;102019.06;;;21.79;59.67
65659;BME280;60181;53.258;6.932;2022-07-24T03:08:39;102016.78;;;21.79;59.65
65659;BME280;60181;53.258;6.932;2022-07-24T03:13:07;102013.62;;;21.78;59.66
65659;BME280;60181;53.258;6.932;2022-07-24T03:17:35;102010.53;;;21.77;59.63
65659;BME280;60181;53.258;6.932;2022-07-24T03:22:03;102006.37;;;21.77;59.65
65659;BME280;60181;53.258;6.932;2022-07-24T03:26:31;102002.80;;;21.77;59.65
65659;BME280;60181;53.258;6.932;2022-07-24T03:30:59;101997.71;;;21.76;59.66
65659;BME280;60181;53.258;6.932;2022-07-24T03:35:27;101993.34;;;21.75;59.64
65659;BME280;60181;53.258;6.932;2022-07-24T03:39:55;101987.95;;;21.74;59.63
65659;BME280;60181;53.258;6.932;2022-07-24T03:44:23;101983.76;;;21.74;59.63
65659;BME280;60181;53.258;6.932;2022-07-24T03:48:51;101981.19;;;21.74;59.62
65659;BME280;60181;53.258;6.932;2022-07-24T03:53:19;101979.85;;;21.74;59.60
65659;BME280;60181;53.258;6.932;2022-07-24T03:57:47;101977.44;;;21.73;59.59
65659;BME280;60181;53.258;6.932;2022-07-24T04:02:15;101975.76;;;21.73;59.58
65659;BME280;60181;53.258;6.932;2022-07-24T04:06:43;101975.61;;;21.73;59.57
65659;BME280;60181;53.258;6.932;2022-07-24T04:11:11;101974.44;;;21.73;59.55
65659;BME280;60181;53.258;6.932;2022-07-24T04:15:39;101972.94;;;21.73;59.51
65659;BME280;60181;53.258;6.932;2022-07-24T04:20:07;101970.01;;;21.74;59.52
65659;BME280;60181;53.258;6.932;2022-07-24T04:24:35;101966.17;;;21.74;59.50
65659;BME280;60181;53.258;6.932;2022-07-24T04:29:03;101962.67;;;21.74;59.50
65659;BME280;60181;53.258;6.932;2022-07-24T04:33:31;101959.84;;;21.74;59.52
65659;BME280;60181;53.258;6.932;2022-07-24T04:37:59;101956.34;;;21.74;59.52
65659;BME280;60181;53.258;6.932;2022-07-24T04:42:27;101954.42;;;21.73;59.50
65659;BME280;60181;53.258;6.932;2022-07-24T04:46:55;101953.00;;;21.74;59.46
65659;BME280;60181;53.258;6.932;2022-07-24T04:51:23;101952.67;;;21.74;59.47
65659;BME280;60181;53.258;6.932;2022-07-24T04:55:50;101954.24;;;21.74;59.43
65659;BME280;60181;53.258;6.932;2022-07-24T05:00:19;101956.08;;;21.75;59.38
65659;BME280;60181;53.258;6.932;2022-07-24T05:04:46;101956.66;;;21.75;59.48
65659;BME280;60181;53.258;6.932;2022-07-24T05:09:15;101957.33;;;21.75;59.49
65659;BME280;60181;53.258;6.932;2022-07-24T05:13:42;101955.91;;;21.75;59.45
65659;BME280;60181;53.258;6.932;2022-07-24T05:18:10;101953.75;;;21.75;59.45
65659;BME280;60181;53.258;6.932;2022-07-24T05:22:38;101951.15;;;21.75;59.51
65659;BME280;60181;53.258;6.932;2022-07-24T05:27:06;101948.82;;;21.76;59.43
65659;BME280;60181;53.258;6.932;2022-07-24T05:31:34;101945.48;;;21.77;59.39
65659;BME280;60181;53.258;6.932;2022-07-24T05:36:03;101940.89;;;21.79;59.32
65659;BME280;60181;53.258;6.932;2022-07-24T05:40:30;101936.08;;;21.80;59.47
65659;BME280;60181;53.258;6.932;2022-07-24T05:44:58;101931.82;;;21.81;59.46
65659;BME280;60181;53.258;6.932;2022-07-24T05:49:26;101927.80;;;21.82;59.51
65659;BME280;60181;53.258;6.932;2022-07-24T05:53:54;101925.89;;;21.83;59.47
65659;BME280;60181;53.258;6.932;2022-07-24T05:58:22;101923.89;;;21.84;59.43
65659;BME280;60181;53.258;6.932;2022-07-24T06:02:50;101921.63;;;21.85;59.39
65659;BME280;60181;53.258;6.932;2022-07-24T06:07:18;101917.81;;;21.87;59.25
65659;BME280;60181;53.258;6.932;2022-07-24T06:11:46;101915.06;;;21.88;59.25
65659;BME280;60181;53.258;6.932;2022-07-24T06:16:14;101913.56;;;21.89;59.29
65659;BME280;60181;53.258;6.932;2022-07-24T06:20:42;101911.21;;;21.89;59.38
65659;BME280;60181;53.258;6.932;2022-07-24T06:25:11;101908.78;;;21.90;59.38
65659;BME280;60181;53.258;6.932;2022-07-24T06:29:38;101907.12;;;21.90;59.38
65659;BME280;60181;53.258;6.932;2022-07-24T06:34:06;101904.88;;;21.90;59.39
65659;BME280;60181;53.258;6.932;2022-07-24T06:38:35;101902.70;;;21.90;59.37
65659;BME280;60181;53.258;6.932;2022-07-24T06:43:02;101900.29;;;21.91;59.27
65659;BME280;60181;53.258;6.932;2022-07-24T06:47:30;101898.86;;;21.93;59.00
65659;BME280;60181;53.258;6.932;2022-07-24T06:51:58;101898.85;;;21.94;58.90
65659;BME280;60181;53.258;6.932;2022-07-24T06:56:26;101900.44;;;21.96;58.85
65659;BME280;60181;53.258;6.932;2022-07-24T07:00:54;101900.61;;;21.98;58.77
65659;BME280;60181;53.258;6.932;2022-07-24T07:05:22;101900.78;;;22.00;58.72
65659;BME280;60181;53.258;6.932;2022-07-24T07:09:50;101900.59;;;22.03;58.58
65659;BME280;60181;53.258;6.932;2022-07-24T07:14:18;101902.08;;;22.07;58.39
65659;BME280;60181;53.258;6.932;2022-07-24T07:18:46;101903.16;;;22.13;58.14
65659;BME280;60181;53.258;6.932;2022-07-24T07:23:14;101903.14;;;22.18;57.99
65659;BME280;60181;53.258;6.932;2022-07-24T07:27:42;101902.78;;;22.25;57.85
65659;BME280;60181;53.258;6.932;2022-07-24T07:32:10;101900.70;;;22.31;57.83
65659;BME280;60181;53.258;6.932;2022-07-24T07:36:38;101899.34;;;22.37;57.75
65659;BME280;60181;53.258;6.932;2022-07-24T07:41:06;101898.58;;;22.41;57.80
65659;BME280;60181;53.258;6.932;2022-07-24T07:45:34;101896.73;;;22.45;57.72
65659;BME280;60181;53.258;6.932;2022-07-24T07:50:02;101895.29;;;22.50;57.64
65659;BME280;60181;53.258;6.932;2022-07-24T07:54:30;101895.36;;;22.54;57.57
65659;BME280;60181;53.258;6.932;2022-07-24T07:58:58;101895.68;;;22.58;57.55
65659;BME280;60181;53.258;6.932;2022-07-24T08:03:26;101895.59;;;22.63;57.50
65659;BME280;60181;53.258;6.932;2022-07-24T08:07:54;101893.30;;;22.66;57.43
65659;BME280;60181;53.258;6.932;2022-07-24T08:12:22;101889.53;;;22.70;57.38
65659;BME280;60181;53.258;6.932;2022-07-24T08:16:50;101887.35;;;22.75;57.33
65659;BME280;60181;53.258;6.932;2022-07-24T08:21:18;101886.25;;;22.78;57.45
65659;BME280;60181;53.258;6.932;2022-07-24T08:25:46;101885.80;;;22.80;57.58
65659;BME280;60181;53.258;6.932;2022-07-24T08:30:14;101885.21;;;22.80;57.70
65659;BME280;60181;53.258;6.932;2022-07-24T08:34:42;101883.37;;;22.79;57.81
65659;BME280;60181;53.258;6.932;2022-07-24T08:39:11;101883.39;;;22.77;57.94
65659;BME280;60181;53.258;6.932;2022-07-24T08:43:38;101881.24;;;22.76;57.86
65659;BME280;60181;53.258;6.932;2022-07-24T08:48:07;101881.08;;;22.76;57.81
65659;BME280;60181;53.258;6.932;2022-07-24T08:52:35;101881.58;;;22.77;57.68
65659;BME280;60181;53.258;6.932;2022-07-24T08:57:03;101882.98;;;22.78;57.69
65659;BME280;60181;53.258;6.932;2022-07-24T09:01:30;101882.70;;;22.80;57.63
65659;BME280;60181;53.258;6.932;2022-07-24T09:05:58;101882.62;;;22.82;57.70
65659;BME280;60181;53.258;6.932;2022-07-24T09:10:28;101881.43;;;22.82;57.73
65659;BME280;60181;53.258;6.932;2022-07-24T09:14:54;101880.88;;;22.83;57.74
65659;BME280;60181;53.258;6.932;2022-07-24T09:19:22;101880.69;;;22.82;57.91
65659;BME280;60181;53.258;6.932;2022-07-24T09:23:50;101878.69;;;22.81;57.98
65659;BME280;60181;53.258;6.932;2022-07-24T09:28:18;101877.03;;;22.80;57.95
65659;BME280;60181;53.258;6.932;2022-07-24T09:32:51;101877.37;;;22.79;57.99
65659;BME280;60181;53.258;6.932;2022-07-24T09:37:14;101879.46;;;22.79;58.00
65659;BME280;60181;53.258;6.932;2022-07-24T09:41:49;101880.64;;;22.78;57.99
65659;BME280;60181;53.258;6.932;2022-07-24T09:46:10;101881.57;;;22.78;57.99
65659;BME280;60181;53.258;6.932;2022-07-24T09:50:38;101881.30;;;22.78;58.02
65659;BME280;60181;53.258;6.932;2022-07-24T09:55:18;101879.14;;;22.78;58.02
65659;BME280;60181;53.258;6.932;2022-07-24T09:59:34;101876.62;;;22.79;58.02
65659;BME280;60181;53.258;6.932;2022-07-24T10:04:02;101874.35;;;22.79;58.05
65659;BME280;60181;53.258;6.932;2022-07-24T10:08:33;101872.53;;;22.78;58.19
65659;BME280;60181;53.258;6.932;2022-07-24T10:12:58;101869.71;;;22.78;58.20
65659;BME280;60181;53.258;6.932;2022-07-24T10:21:54;101863.78;;;22.78;58.21
65659;BME280;60181;53.258;6.932;2022-07-24T10:26:34;101861.53;;;22.78;58.10
65659;BME280;60181;53.258;6.932;2022-07-24T10:30:50;101860.02;;;22.78;58.13
65659;BME280;60181;53.258;6.932;2022-07-24T10:35:22;101858.25;;;22.78;58.19
65659;BME280;60181;53.258;6.932;2022-07-24T10:44:17;101858.51;;;22.77;58.24
65659;BME280;60181;53.258;6.932;2022-07-24T10:48:42;101858.26;;;22.77;58.33
65659;BME280;60181;53.258;6.932;2022-07-24T10:53:19;101857.67;;;22.77;58.31
65659;BME280;60181;53.258;6.932;2022-07-24T10:57:47;101856.84;;;22.77;58.36
65659;BME280;60181;53.258;6.932;2022-07-24T11:06:52;101853.07;;;22.78;58.47
65659;BME280;60181;53.258;6.932;2022-07-24T11:11:06;101851.73;;;22.78;58.51
65659;BME280;60181;53.258;6.932;2022-07-24T11:15:30;101852.40;;;22.78;58.57
65659;BME280;60181;53.258;6.932;2022-07-24T11:19:58;101851.99;;;22.77;58.53
65659;BME280;60181;53.258;6.932;2022-07-24T11:24:26;101850.25;;;22.77;58.53
65659;BME280;60181;53.258;6.932;2022-07-24T11:33:22;101848.00;;;22.77;58.62
65659;BME280;60181;53.258;6.932;2022-07-24T11:37:50;101846.41;;;22.77;58.63
65659;BME280;60181;53.258;6.932;2022-07-24T11:42:18;101844.16;;;22.77;58.68
65659;BME280;60181;53.258;6.932;2022-07-24T11:46:46;101841.30;;;22.76;58.69
65659;BME280;60181;53.258;6.932;2022-07-24T11:51:14;101840.31;;;22.76;58.71
65659;BME280;60181;53.258;6.932;2022-07-24T11:55:42;101839.97;;;22.76;58.72
65659;BME280;60181;53.258;6.932;2022-07-24T12:00:14;101838.64;;;22.76;58.75
65659;BME280;60181;53.258;6.932;2022-07-24T12:04:39;101836.72;;;22.76;58.78
65659;BME280;60181;53.258;6.932;2022-07-24T12:09:06;101833.46;;;22.75;58.84
65659;BME280;60181;53.258;6.932;2022-07-24T12:13:34;101831.37;;;22.75;58.83
65659;BME280;60181;53.258;6.932;2022-07-24T12:18:03;101828.47;;;22.75;58.86
65659;BME280;60181;53.258;6.932;2022-07-24T12:22:30;101825.05;;;22.75;58.88
65659;BME280;60181;53.258;6.932;2022-07-24T12:26:58;101818.70;;;22.75;58.85
65659;BME280;60181;53.258;6.932;2022-07-24T12:31:26;101813.53;;;22.75;58.91
65659;BME280;60181;53.258;6.932;2022-07-24T12:35:58;101809.76;;;22.75;58.91
65659;BME280;60181;53.258;6.932;2022-07-24T12:40:35;101805.08;;;22.75;58.94
65659;BME280;60181;53.258;6.932;2022-07-24T12:44:50;101801.33;;;22.75;58.94
65659;BME280;60181;53.258;6.932;2022-07-24T12:49:18;101797.49;;;22.75;58.97
65659;BME280;60181;53.258;6.932;2022-07-24T12:53:46;101793.98;;;22.75;59.00
65659;BME280;60181;53.258;6.932;2022-07-24T12:58:14;101789.81;;;22.75;59.03
65659;BME280;60181;53.258;6.932;2022-07-24T13:02:42;101783.80;;;22.75;59.02
65659;BME280;60181;53.258;6.932;2022-07-24T13:07:10;101779.12;;;22.75;59.04
65659;BME280;60181;53.258;6.932;2022-07-24T13:11:38;101776.12;;;22.75;59.03
65659;BME280;60181;53.258;6.932;2022-07-24T13:16:06;101774.11;;;22.75;59.08
65659;BME280;60181;53.258;6.932;2022-07-24T13:20:34;101772.77;;;22.75;59.08
65659;BME280;60181;53.258;6.932;2022-07-24T13:25:02;101771.34;;;22.75;59.14
65659;BME280;60181;53.258;6.932;2022-07-24T13:29:30;101771.25;;;22.75;59.15
65659;BME280;60181;53.258;6.932;2022-07-24T13:33:58;101767.41;;;22.75;59.15
65659;BME280;60181;53.258;6.932;2022-07-24T13:38:26;101762.47;;;22.75;59.15
65659;BME280;60181;53.258;6.932;2022-07-24T13:42:54;101758.54;;;22.76;59.17
65659;BME280;60181;53.258;6.932;2022-07-24T13:47:22;101755.21;;;22.76;59.16
65659;BME280;60181;53.258;6.932;2022-07-24T13:51:50;101751.20;;;22.76;59.22
65659;BME280;60181;53.258;6.932;2022-07-24T13:56:18;101747.27;;;22.76;59.21
65659;BME280;60181;53.258;6.932;2022-07-24T14:00:46;101742.33;;;22.77;59.22
65659;BME280;60181;53.258;6.932;2022-07-24T14:05:14;101736.82;;;22.77;59.27
65659;BME280;60181;53.258;6.932;2022-07-24T14:09:42;101732.83;;;22.77;59.29
65659;BME280;60181;53.258;6.932;2022-07-24T14:14:10;101727.39;;;22.77;59.29
65659;BME280;60181;53.258;6.932;2022-07-24T14:18:38;101722.38;;;22.77;59.31
65659;BME280;60181;53.258;6.932;2022-07-24T14:23:06;101716.53;;;22.77;59.33
65659;BME280;60181;53.258;6.932;2022-07-24T14:27:34;101710.77;;;22.78;59.36
65659;BME280;60181;53.258;6.932;2022-07-24T14:32:02;101707.03;;;22.78;59.37
65659;BME280;60181;53.258;6.932;2022-07-24T14:36:30;101702.34;;;22.78;59.38
65659;BME280;60181;53.258;6.932;2022-07-24T14:40:58;101697.91;;;22.78;59.42
65659;BME280;60181;53.258;6.932;2022-07-24T14:45:26;101693.64;;;22.78;59.46
65659;BME280;60181;53.258;6.932;2022-07-24T14:49:54;101689.54;;;22.79;59.47
65659;BME280;60181;53.258;6.932;2022-07-24T14:54:22;101686.05;;;22.79;59.51
65659;BME280;60181;53.258;6.932;2022-07-24T14:58:50;101681.27;;;22.79;59.54
65659;BME280;60181;53.258;6.932;2022-07-24T15:03:18;101677.34;;;22.80;59.56
65659;BME280;60181;53.258;6.932;2022-07-24T15:07:46;101673.74;;;22.80;59.57
65659;BME280;60181;53.258;6.932;2022-07-24T15:12:14;101670.67;;;22.80;59.60
65659;BME280;60181;53.258;6.932;2022-07-24T15:16:42;101666.74;;;22.80;59.65
65659;BME280;60181;53.258;6.932;2022-07-24T15:21:10;101663.21;;;22.81;59.64
65659;BME280;60181;53.258;6.932;2022-07-24T15:25:38;101659.95;;;22.82;59.69
65659;BME280;60181;53.258;6.932;2022-07-24T15:30:06;101655.59;;;22.82;59.68
65659;BME280;60181;53.258;6.932;2022-07-24T15:34:34;101651.19;;;22.83;59.70
65659;BME280;60181;53.258;6.932;2022-07-24T15:39:02;101646.92;;;22.83;59.71
65659;BME280;60181;53.258;6.932;2022-07-24T15:43:30;101643.06;;;22.83;59.76
65659;BME280;60181;53.258;6.932;2022-07-24T15:47:58;101639.56;;;22.84;59.79
65659;BME280;60181;53.258;6.932;2022-07-24T15:52:26;101635.03;;;22.84;59.79
65659;BME280;60181;53.258;6.932;2022-07-24T15:56:54;101629.80;;;22.85;59.86
65659;BME280;60181;53.258;6.932;2022-07-24T16:01:22;101625.02;;;22.85;59.89
65659;BME280;60181;53.258;6.932;2022-07-24T16:05:50;101621.06;;;22.86;59.90
65659;BME280;60181;53.258;6.932;2022-07-24T16:10:18;101617.64;;;22.86;59.89
65659;BME280;60181;53.258;6.932;2022-07-24T16:14:46;101612.81;;;22.87;59.92
65659;BME280;60181;53.258;6.932;2022-07-24T16:19:14;101607.95;;;22.88;59.96
65659;BME280;60181;53.258;6.932;2022-07-24T16:23:42;101602.44;;;22.89;59.97
65659;BME280;60181;53.258;6.932;2022-07-24T16:28:10;101597.72;;;22.90;60.11
65659;BME280;60181;53.258;6.932;2022-07-24T16:32:38;101593.03;;;22.91;60.10
65659;BME280;60181;53.258;6.932;2022-07-24T16:37:06;101588.11;;;22.92;60.16
65659;BME280;60181;53.258;6.932;2022-07-24T16:41:34;101583.34;;;22.93;60.12
65659;BME280;60181;53.258;6.932;2022-07-24T16:46:02;101578.89;;;22.93;60.17
65659;BME280;60181;53.258;6.932;2022-07-24T16:50:30;101573.46;;;22.94;60.23
65659;BME280;60181;53.258;6.932;2022-07-24T16:54:57;101567.53;;;22.95;60.29
65659;BME280;60181;53.258;6.932;2022-07-24T16:59:25;101561.94;;;22.96;60.34
65659;BME280;60181;53.258;6.932;2022-07-24T17:03:53;101556.30;;;22.96;60.34
65659;BME280;60181;53.258;6.932;2022-07-24T17:08:21;101551.78;;;22.98;60.45
65659;BME280;60181;53.258;6.932;2022-07-24T17:12:49;101548.10;;;22.99;60.42
65659;BME280;60181;53.258;6.932;2022-07-24T17:17:17;101545.83;;;23.00;60.45
65659;BME280;60181;53.258;6.932;2022-07-24T17:21:46;101543.55;;;23.01;60.59
65659;BME280;60181;53.258;6.932;2022-07-24T17:26:13;101541.64;;;23.02;60.60
65659;BME280;60181;53.258;6.932;2022-07-24T17:30:42;101538.44;;;23.03;60.65
65659;BME280;60181;53.258;6.932;2022-07-24T17:35:10;101536.17;;;23.04;60.67
65659;BME280;60181;53.258;6.932;2022-07-24T17:39:38;101533.58;;;23.05;60.65
65659;BME280;60181;53.258;6.932;2022-07-24T17:44:05;101531.54;;;23.07;60.61
65659;BME280;60181;53.258;6.932;2022-07-24T17:48:33;101529.96;;;23.07;60.69
65659;BME280;60181;53.258;6.932;2022-07-24T17:53:01;101528.53;;;23.08;60.70
65659;BME280;60181;53.258;6.932;2022-07-24T17:57:29;101528.18;;;23.09;60.69
65659;BME280;60181;53.258;6.932;2022-07-24T18:01:57;101528.67;;;23.10;60.75
65659;BME280;60181;53.258;6.932;2022-07-24T18:06:25;101527.08;;;23.10;60.81
65659;BME280;60181;53.258;6.932;2022-07-24T18:10:53;101524.78;;;23.12;60.83
65659;BME280;60181;53.258;6.932;2022-07-24T18:15:21;101522.69;;;23.13;60.82
65659;BME280;60181;53.258;6.932;2022-07-24T18:19:49;101520.17;;;23.14;60.89
65659;BME280;60181;53.258;6.932;2022-07-24T18:24:17;101518.47;;;23.16;60.77
65659;BME280;60181;53.258;6.932;2022-07-24T18:28:45;101516.24;;;23.16;60.88
65659;BME280;60181;53.258;6.932;2022-07-24T18:33:13;101514.40;;;23.16;60.96
65659;BME280;60181;53.258;6.932;2022-07-24T18:37:41;101512.89;;;23.15;61.03
65659;BME280;60181;53.258;6.932;2022-07-24T18:42:09;101511.28;;;23.17;61.12
65659;BME280;60181;53.258;6.932;2022-07-24T18:46:37;101508.25;;;23.19;61.59
65659;BME280;60181;53.258;6.932;2022-07-24T18:51:05;101504.81;;;23.21;62.38
65659;BME280;60181;53.258;6.932;2022-07-24T18:55:33;101502.47;;;23.24;62.95
65659;BME280;60181;53.258;6.932;2022-07-24T19:00:02;101500.10;;;23.24;63.19
65659;BME280;60181;53.258;6.932;2022-07-24T19:04:29;101497.78;;;23.23;63.01
65659;BME280;60181;53.258;6.932;2022-07-24T19:08:57;101496.53;;;23.21;63.42
65659;BME280;60181;53.258;6.932;2022-07-24T19:13:25;101495.04;;;23.19;63.04
65659;BME280;60181;53.258;6.932;2022-07-24T19:17:53;101493.41;;;23.17;63.11
65659;BME280;60181;53.258;6.932;2022-07-24T19:22:21;101490.59;;;23.15;63.16
65659;BME280;60181;53.258;6.932;2022-07-24T19:26:49;101487.53;;;23.13;63.38
65659;BME280;60181;53.258;6.932;2022-07-24T19:31:17;101485.19;;;23.11;63.42
65659;BME280;60181;53.258;6.932;2022-07-24T19:35:45;101483.56;;;23.10;63.65
65659;BME280;60181;53.258;6.932;2022-07-24T19:40:13;101482.23;;;23.09;64.20
65659;BME280;60181;53.258;6.932;2022-07-24T19:44:41;101479.90;;;23.08;64.20
65659;BME280;60181;53.258;6.932;2022-07-24T19:49:09;101478.07;;;23.07;64.13
65659;BME280;60181;53.258;6.932;2022-07-24T19:53:37;101477.26;;;23.06;64.55
65659;BME280;60181;53.258;6.932;2022-07-24T19:58:05;101476.19;;;23.06;64.86
65659;BME280;60181;53.258;6.932;2022-07-24T20:02:33;101475.42;;;23.06;64.97
65659;BME280;60181;53.258;6.932;2022-07-24T20:07:01;101474.58;;;23.06;64.84
65659;BME280;60181;53.258;6.932;2022-07-24T20:11:29;101472.00;;;23.05;64.90
65659;BME280;60181;53.258;6.932;2022-07-24T20:15:57;101469.50;;;23.04;65.03
65659;BME280;60181;53.258;6.932;2022-07-24T20:20:25;101466.85;;;23.04;64.79
65659;BME280;60181;53.258;6.932;2022-07-24T20:24:53;101464.18;;;23.03;64.87
65659;BME280;60181;53.258;6.932;2022-07-24T20:29:21;101461.43;;;23.02;64.90
65659;BME280;60181;53.258;6.932;2022-07-24T20:33:50;101459.26;;;23.02;64.95
65659;BME280;60181;53.258;6.932;2022-07-24T20:38:17;101457.31;;;23.04;64.79
65659;BME280;60181;53.258;6.932;2022-07-24T20:42:46;101455.53;;;23.06;64.99
65659;BME280;60181;53.258;6.932;2022-07-24T20:47:13;101452.44;;;23.06;65.09
65659;BME280;60181;53.258;6.932;2022-07-24T20:51:41;101448.27;;;23.07;65.15
65659;BME280;60181;53.258;6.932;2022-07-24T20:56:09;101444.14;;;23.08;65.19
65659;BME280;60181;53.258;6.932;2022-07-24T21:00:37;101441.29;;;23.09;65.29
65659;BME280;60181;53.258;6.932;2022-07-24T21:05:05;101436.45;;;23.09;65.30
65659;BME280;60181;53.258;6.932;2022-07-24T21:09:33;101430.58;;;23.10;65.25
65659;BME280;60181;53.258;6.932;2022-07-24T21:14:01;101426.82;;;23.10;65.18
65659;BME280;60181;53.258;6.932;2022-07-24T21:18:29;101421.72;;;23.11;65.15
65659;BME280;60181;53.258;6.932;2022-07-24T21:22:57;101416.27;;;23.11;65.28
65659;BME280;60181;53.258;6.932;2022-07-24T21:27:25;101410.92;;;23.11;65.35
65659;BME280;60181;53.258;6.932;2022-07-24T21:31:53;101405.75;;;23.11;65.41
65659;BME280;60181;53.258;6.932;2022-07-24T21:36:21;101401.40;;;23.11;65.52
65659;BME280;60181;53.258;6.932;2022-07-24T21:40:49;101397.22;;;23.11;65.44
65659;BME280;60181;53.258;6.932;2022-07-24T21:45:17;101392.97;;;23.11;65.51
65659;BME280;60181;53.258;6.932;2022-07-24T21:49:45;101389.12;;;23.11;65.55
65659;BME280;60181;53.258;6.932;2022-07-24T21:54:13;101384.88;;;23.10;65.55
65659;BME280;60181;53.258;6.932;2022-07-24T21:58:41;101380.19;;;23.10;65.40
65659;BME280;60181;53.258;6.932;2022-07-24T22:03:09;101375.27;;;23.10;65.44
65659;BME280;60181;53.258;6.932;2022-07-24T22:07:37;101370.03;;;23.09;65.43
65659;BME280;60181;53.258;6.932;2022-07-24T22:12:06;101367.27;;;23.09;65.58
65659;BME280;60181;53.258;6.932;2022-07-24T22:16:33;101364.59;;;23.09;65.60
65659;BME280;60181;53.258;6.932;2022-07-24T22:21:01;101361.67;;;23.08;65.39
65659;BME280;60181;53.258;6.932;2022-07-24T22:25:29;101360.52;;;23.07;65.43
65659;BME280;60181;53.258;6.932;2022-07-24T22:29:57;101360.62;;;23.07;65.36
65659;BME280;60181;53.258;6.932;2022-07-24T22:34:25;101359.70;;;23.06;65.47
65659;BME280;60181;53.258;6.932;2022-07-24T22:38:53;101358.54;;;23.06;65.30
65659;BME280;60181;53.258;6.932;2022-07-24T22:43:21;101357.78;;;23.06;65.31
65659;BME280;60181;53.258;6.932;2022-07-24T22:47:49;101357.71;;;23.05;65.16
65659;BME280;60181;53.258;6.932;2022-07-24T22:52:18;101355.30;;;23.05;65.02
65659;BME280;60181;53.258;6.932;2022-07-24T22:56:45;101352.38;;;23.05;65.25
65659;BME280;60181;53.258;6.932;2022-07-24T23:01:14;101351.05;;;23.05;65.34
65659;BME280;60181;53.258;6.932;2022-07-24T23:05:41;101349.20;;;23.05;65.32
65659;BME280;60181;53.258;6.932;2022-07-24T23:10:09;101347.04;;;23.05;65.38
65659;BME280;60181;53.258;6.932;2022-07-24T23:14:37;101344.70;;;23.05;65.28
65659;BME280;60181;53.258;6.932;2022-07-24T23:19:05;101342.26;;;23.04;65.26
65659;BME280;60181;53.258;6.932;2022-07-24T23:23:33;101338.84;;;23.04;65.22
65659;BME280;60181;53.258;6.932;2022-07-24T23:28:01;101334.26;;;23.04;65.15
65659;BME280;60181;53.258;6.932;2022-07-24T23:32:29;101329.17;;;23.04;65.13
65659;BME280;60181;53.258;6.932;2022-07-24T23:36:57;101323.89;;;23.03;65.28